createdAt,value
2022-10-20T00:00:01.214Z,7.7
2022-10-20T00:01:04.285Z,7.6
2022-10-20T00:02:01.437Z,7.6
2022-10-20T00:03:01.222Z,7.6
2022-10-20T00:04:01.147Z,7.6
2022-10-20T00:05:01.183Z,7.5
2022-10-20T00:06:06.405Z,7.5
2022-10-20T00:07:01.059Z,7.5
2022-10-20T00:08:01.076Z,7.5
2022-10-20T00:09:01.187Z,7.5
2022-10-20T00:10:01.917Z,7.5
2022-10-20T00:11:10.554Z,7.5
2022-10-20T00:12:01.480Z,7.5
2022-10-20T00:13:01.260Z,7.5
2022-10-20T00:14:01.112Z,7.6
2022-10-20T00:15:01.105Z,7.6
2022-10-20T00:16:13.488Z,7.6
2022-10-20T00:17:01.124Z,7.6
2022-10-20T00:18:01.139Z,7.6
2022-10-20T00:19:01.135Z,7.6
2022-10-20T00:20:01.248Z,7.5
2022-10-20T00:21:15.750Z,7.5
2022-10-20T00:22:01.393Z,7.5
2022-10-20T00:23:01.366Z,7.5
2022-10-20T00:24:01.385Z,7.5
2022-10-20T00:25:02.735Z,7.5
2022-10-20T00:26:01.098Z,7.5
2022-10-20T00:27:01.049Z,7.5
2022-10-20T00:28:01.090Z,7.5
2022-10-20T00:29:01.095Z,7.5
2022-10-20T00:30:01.104Z,7.5
2022-10-20T00:31:01.117Z,7.5
2022-10-20T00:32:01.226Z,7.5
2022-10-20T00:33:01.133Z,7.5
2022-10-20T00:34:01.053Z,7.5
2022-10-20T00:35:01.036Z,7.5
2022-10-20T00:36:01.145Z,7.5
2022-10-20T00:37:01.148Z,7.4
2022-10-20T00:38:01.454Z,7.5
2022-10-20T00:39:01.905Z,7.5
2022-10-20T00:40:01.106Z,7.5
2022-10-20T00:41:01.210Z,7.5
2022-10-20T00:42:01.905Z,7.5
2022-10-20T00:43:01.084Z,7.6
2022-10-20T00:44:01.088Z,7.6
2022-10-20T00:45:01.398Z,7.6
2022-10-20T00:46:01.488Z,7.6
2022-10-20T00:47:01.134Z,7.6
2022-10-20T00:48:01.136Z,7.6
2022-10-20T00:49:01.125Z,7.7
2022-10-20T00:50:01.120Z,7.7
2022-10-20T00:51:01.135Z,7.7
2022-10-20T00:52:01.246Z,7.7
2022-10-20T00:53:01.138Z,7.7
2022-10-20T00:54:01.140Z,7.7
2022-10-20T00:55:01.047Z,7.7
2022-10-20T00:56:01.259Z,7.6
2022-10-20T00:57:04.122Z,7.7
2022-10-20T00:58:01.075Z,7.6
2022-10-20T00:59:01.053Z,7.6
2022-10-20T01:00:01.485Z,7.6
2022-10-20T01:01:01.091Z,7.6
2022-10-20T01:02:01.139Z,7.6
2022-10-20T01:03:01.122Z,7.6
2022-10-20T01:04:01.102Z,7.6
2022-10-20T01:05:01.145Z,7.6
2022-10-20T01:06:01.149Z,7.6
2022-10-20T01:07:00.939Z,7.6
2022-10-20T01:08:00.635Z,7.6
2022-10-20T01:09:00.376Z,7.6
2022-10-20T01:10:00.015Z,7.6
2022-10-20T01:10:59.618Z,7.6
2022-10-20T01:12:01.708Z,7.5
2022-10-20T01:13:01.801Z,7.5
2022-10-20T01:14:01.661Z,7.5
2022-10-20T01:15:02.151Z,7.4
2022-10-20T01:16:01.397Z,7.4
2022-10-20T01:17:01.899Z,7.3
2022-10-20T01:18:01.821Z,7.3
2022-10-20T01:19:01.143Z,7.3
2022-10-20T01:20:01.856Z,7.3
2022-10-20T01:21:01.148Z,7.3
2022-10-20T01:22:01.124Z,7.3
2022-10-20T01:23:01.121Z,7.3
2022-10-20T01:24:01.323Z,7.3
2022-10-20T01:25:01.517Z,7.3
2022-10-20T01:26:01.147Z,7.3
2022-10-20T01:27:01.096Z,7.3
2022-10-20T01:28:01.063Z,7.3
2022-10-20T01:29:01.061Z,7.3
2022-10-20T01:31:01.088Z,7.3
2022-10-20T01:32:01.076Z,7.3
2022-10-20T01:33:01.364Z,7.3
2022-10-20T01:34:01.041Z,7.2
2022-10-20T01:35:01.451Z,7.1
2022-10-20T01:36:01.116Z,7.1
2022-10-20T01:37:01.132Z,7.1
2022-10-20T01:38:01.143Z,7
2022-10-20T01:39:01.122Z,7
2022-10-20T01:40:01.133Z,7
2022-10-20T01:41:01.162Z,6.9
2022-10-20T01:42:01.148Z,6.8
2022-10-20T01:43:01.858Z,6.8
2022-10-20T01:44:01.871Z,6.8
2022-10-20T01:45:01.484Z,6.8
2022-10-20T01:46:01.106Z,6.8
2022-10-20T01:47:01.075Z,6.9
2022-10-20T01:48:01.308Z,6.8
2022-10-20T01:49:01.477Z,6.8
2022-10-20T01:50:01.061Z,6.9
2022-10-20T01:51:01.188Z,6.8
2022-10-20T01:52:01.111Z,6.9
2022-10-20T01:53:01.116Z,6.9
2022-10-20T01:54:01.134Z,6.9
2022-10-20T01:55:01.121Z,6.9
2022-10-20T01:56:00.755Z,6.9
2022-10-20T01:57:00.426Z,6.9
2022-10-20T01:58:00.261Z,6.9
2022-10-20T01:59:00.016Z,6.9
2022-10-20T01:59:59.710Z,6.8
2022-10-20T02:01:01.357Z,6.8
2022-10-20T02:02:01.970Z,6.7
2022-10-20T02:03:01.079Z,6.7
2022-10-20T02:04:01.107Z,6.6
2022-10-20T02:05:01.092Z,6.6
2022-10-20T02:06:01.102Z,6.6
2022-10-20T02:07:01.530Z,6.6
2022-10-20T02:08:00.978Z,6.5
2022-10-20T02:09:00.655Z,6.5
2022-10-20T02:10:00.399Z,6.5
2022-10-20T02:11:00.422Z,6.5
2022-10-20T02:12:01.148Z,6.5
2022-10-20T02:13:01.157Z,6.5
2022-10-20T02:14:01.142Z,6.5
2022-10-20T02:15:01.458Z,6.5
2022-10-20T02:16:01.058Z,6.5
2022-10-20T02:17:01.069Z,6.5
2022-10-20T02:18:01.062Z,6.4
2022-10-20T02:19:01.096Z,6.3
2022-10-20T02:20:01.109Z,6.3
2022-10-20T02:21:01.475Z,6.3
2022-10-20T02:22:00.983Z,6.3
2022-10-20T02:23:01.052Z,6.2
2022-10-20T02:24:00.542Z,6.2
2022-10-20T02:25:00.173Z,6.2
2022-10-20T02:25:59.946Z,6.2
2022-10-20T02:26:59.686Z,6.3
2022-10-20T02:28:01.333Z,6.3
2022-10-20T02:29:01.329Z,6.3
2022-10-20T02:30:01.395Z,6.3
2022-10-20T02:31:01.076Z,6.3
2022-10-20T02:32:01.046Z,6.2
2022-10-20T02:33:01.065Z,6.2
2022-10-20T02:34:01.087Z,6.3
2022-10-20T02:35:05.029Z,6.2
2022-10-20T02:36:01.097Z,6.1
2022-10-20T02:37:01.108Z,6.1
2022-10-20T02:38:01.138Z,6
2022-10-20T02:39:01.173Z,6
2022-10-20T02:40:01.226Z,6
2022-10-20T02:41:02.813Z,5.9
2022-10-20T02:42:01.510Z,5.7
2022-10-20T02:43:01.123Z,5.6
2022-10-20T02:44:01.149Z,5.6
2022-10-20T02:45:01.133Z,5.6
2022-10-20T02:46:05.930Z,5.7
2022-10-20T02:47:01.531Z,5.8
2022-10-20T02:48:02.527Z,5.8
2022-10-20T02:49:01.697Z,5.8
2022-10-20T02:50:02.025Z,5.7
2022-10-20T02:51:10.463Z,5.7
2022-10-20T02:52:01.082Z,5.7
2022-10-20T02:53:01.465Z,5.8
2022-10-20T02:54:01.203Z,5.8
2022-10-20T02:55:01.111Z,5.8
2022-10-20T02:56:13.466Z,5.8
2022-10-20T02:57:01.122Z,5.8
2022-10-20T02:58:01.123Z,5.8
2022-10-20T02:59:01.129Z,5.8
2022-10-20T03:00:01.131Z,5.8
2022-10-20T03:01:16.301Z,5.8
2022-10-20T03:02:01.609Z,5.8
2022-10-20T03:03:01.170Z,5.8
2022-10-20T03:04:01.057Z,5.9
2022-10-20T03:05:01.060Z,5.9
2022-10-20T03:06:01.107Z,5.9
2022-10-20T03:07:01.743Z,5.9
2022-10-20T03:08:01.053Z,5.9
2022-10-20T03:09:01.106Z,5.8
2022-10-20T03:10:01.093Z,5.8
2022-10-20T03:11:01.451Z,5.8
2022-10-20T03:12:01.119Z,5.9
2022-10-20T03:13:01.148Z,5.9
2022-10-20T03:14:00.574Z,5.9
2022-10-20T03:15:00.210Z,5.9
2022-10-20T03:15:59.796Z,6
2022-10-20T03:17:01.452Z,6
2022-10-20T03:18:02.861Z,6
2022-10-20T03:19:04.587Z,6
2022-10-20T03:20:01.857Z,6
2022-10-20T03:21:01.155Z,6
2022-10-20T03:22:01.091Z,6
2022-10-20T03:23:01.067Z,6
2022-10-20T03:24:01.389Z,6
2022-10-20T03:25:01.050Z,5.9
2022-10-20T03:26:01.097Z,5.9
2022-10-20T03:27:01.107Z,5.8
2022-10-20T03:28:01.101Z,5.8
2022-10-20T03:29:01.047Z,5.8
2022-10-20T03:30:01.151Z,5.8
2022-10-20T03:31:01.131Z,5.8
2022-10-20T03:32:01.515Z,5.8
2022-10-20T03:33:01.152Z,5.8
2022-10-20T03:34:00.728Z,5.9
2022-10-20T03:35:00.302Z,5.9
2022-10-20T03:35:59.856Z,5.9
2022-10-20T03:37:01.751Z,5.8
2022-10-20T03:38:01.094Z,5.8
2022-10-20T03:39:01.089Z,5.8
2022-10-20T03:40:01.074Z,5.8
2022-10-20T03:42:01.094Z,5.8
2022-10-20T03:43:01.161Z,5.8
2022-10-20T03:44:01.103Z,5.8
2022-10-20T03:45:01.107Z,5.9
2022-10-20T03:46:01.138Z,5.9
2022-10-20T03:47:01.060Z,5.9
2022-10-20T03:48:01.146Z,5.9
2022-10-20T03:49:01.750Z,5.8
2022-10-20T03:50:01.590Z,5.8
2022-10-20T03:51:01.452Z,5.8
2022-10-20T03:52:01.145Z,5.8
2022-10-20T03:53:01.048Z,5.8
2022-10-20T03:54:01.149Z,5.8
2022-10-20T03:55:01.049Z,5.8
2022-10-20T03:56:01.089Z,5.8
2022-10-20T03:57:04.169Z,5.8
2022-10-20T03:58:01.357Z,5.8
2022-10-20T03:59:01.152Z,5.8
2022-10-20T04:00:01.504Z,5.8
2022-10-20T04:01:01.156Z,5.7
2022-10-20T04:02:01.290Z,5.7
2022-10-20T04:03:01.143Z,5.7
2022-10-20T04:04:01.079Z,5.7
2022-10-20T04:05:07.187Z,5.7
2022-10-20T04:06:06.348Z,5.7
2022-10-20T04:07:01.540Z,5.7
2022-10-20T04:08:02.208Z,5.7
2022-10-20T04:09:01.210Z,5.7
2022-10-20T04:10:02.365Z,5.8
2022-10-20T04:11:01.089Z,5.8
2022-10-20T04:12:01.134Z,5.8
2022-10-20T04:13:01.050Z,5.8
2022-10-20T04:14:01.116Z,5.8
2022-10-20T04:15:01.104Z,5.8
2022-10-20T04:16:01.425Z,5.8
2022-10-20T04:17:02.226Z,5.8
2022-10-20T04:18:01.120Z,5.8
2022-10-20T04:19:01.752Z,5.8
2022-10-20T04:20:01.132Z,5.9
2022-10-20T04:21:00.920Z,5.9
2022-10-20T04:22:04.011Z,6
2022-10-20T04:23:01.426Z,6
2022-10-20T04:24:03.343Z,6
2022-10-20T04:25:01.170Z,6
2022-10-20T04:26:01.189Z,6
2022-10-20T04:27:06.278Z,6
2022-10-20T04:28:01.184Z,6
2022-10-20T04:29:01.898Z,5.9
2022-10-20T04:30:01.489Z,5.9
2022-10-20T04:31:01.099Z,5.8
2022-10-20T04:32:09.574Z,5.8
2022-10-20T04:33:01.306Z,5.8
2022-10-20T04:34:01.131Z,5.9
2022-10-20T04:35:01.292Z,6
2022-10-20T04:36:01.323Z,6
2022-10-20T04:37:12.156Z,6
2022-10-20T04:38:01.159Z,6
2022-10-20T04:39:01.137Z,6
2022-10-20T04:40:01.041Z,6
2022-10-20T04:41:03.987Z,6
2022-10-20T04:42:15.339Z,6
2022-10-20T04:43:01.985Z,6
2022-10-20T04:44:02.080Z,5.9
2022-10-20T04:45:01.188Z,5.9
2022-10-20T04:46:03.853Z,6
2022-10-20T04:47:01.093Z,6
2022-10-20T04:48:01.095Z,6
2022-10-20T04:49:01.118Z,6
2022-10-20T04:50:00.939Z,6
2022-10-20T04:51:01.119Z,6
2022-10-20T04:52:01.418Z,6
2022-10-20T04:53:01.164Z,6
2022-10-20T04:54:01.207Z,5.9
2022-10-20T04:55:01.152Z,5.9
2022-10-20T04:56:01.158Z,5.9
2022-10-20T04:57:01.062Z,5.9
2022-10-20T04:58:01.100Z,5.8
2022-10-20T04:59:01.757Z,5.8
2022-10-20T05:00:01.141Z,5.8
2022-10-20T05:01:01.078Z,5.8
2022-10-20T05:02:01.124Z,5.8
2022-10-20T05:03:01.467Z,5.8
2022-10-20T05:04:01.476Z,5.6
2022-10-20T05:05:01.048Z,5.6
2022-10-20T05:06:01.042Z,5.6
2022-10-20T05:07:01.043Z,5.6
2022-10-20T05:08:01.059Z,5.6
2022-10-20T05:09:01.208Z,5.6
2022-10-20T05:10:01.952Z,5.6
2022-10-20T05:11:02.573Z,5.5
2022-10-20T05:12:01.622Z,5.5
2022-10-20T05:13:01.578Z,5.5
2022-10-20T05:14:01.853Z,5.5
2022-10-20T05:15:01.161Z,5.5
2022-10-20T05:16:01.078Z,5.5
2022-10-20T05:17:02.421Z,5.4
2022-10-20T05:18:01.877Z,5.4
2022-10-20T05:19:01.128Z,5.4
2022-10-20T05:20:01.118Z,5.4
2022-10-20T05:21:08.798Z,5.4
2022-10-20T05:22:01.230Z,5.3
2022-10-20T05:23:01.147Z,5.3
2022-10-20T05:24:01.128Z,5.3
2022-10-20T05:25:24.586Z,5.3
2022-10-20T05:26:01.515Z,5.3
2022-10-20T05:27:02.081Z,5.2
2022-10-20T05:28:02.161Z,5.2
2022-10-20T05:29:01.158Z,5.2
2022-10-20T05:30:01.479Z,5.2
2022-10-20T05:31:01.803Z,5.3
2022-10-20T05:32:01.088Z,5.2
2022-10-20T05:33:00.767Z,5.1
2022-10-20T05:34:00.375Z,5.1
2022-10-20T05:34:59.949Z,5.1
2022-10-20T05:35:59.671Z,5.1
2022-10-20T05:37:02.431Z,5.1
2022-10-20T05:38:02.133Z,5.1
2022-10-20T05:39:02.363Z,5.1
2022-10-20T05:40:01.146Z,5.1
2022-10-20T05:41:01.178Z,5.1
2022-10-20T05:42:01.130Z,5.1
2022-10-20T05:43:01.141Z,5.1
2022-10-20T05:44:01.150Z,5.1
2022-10-20T05:45:01.460Z,5.1
2022-10-20T05:46:01.070Z,5.1
2022-10-20T05:47:01.089Z,5.2
2022-10-20T05:48:01.593Z,5.2
2022-10-20T05:49:01.222Z,5.2
2022-10-20T05:50:01.002Z,5.2
2022-10-20T05:51:00.700Z,5.2
2022-10-20T05:52:00.614Z,5.2
2022-10-20T05:53:00.390Z,5.2
2022-10-20T05:53:59.991Z,5.2
2022-10-20T05:54:59.622Z,5.2
2022-10-20T05:56:01.265Z,5.3
2022-10-20T05:57:01.516Z,5.2
2022-10-20T05:58:02.660Z,5.2
2022-10-20T05:59:01.135Z,5.2
2022-10-20T06:00:01.153Z,5.3
2022-10-20T06:01:01.076Z,5.3
2022-10-20T06:02:01.125Z,5.3
2022-10-20T06:03:05.623Z,5.3
2022-10-20T06:04:01.185Z,5.2
2022-10-20T06:05:02.072Z,5.3
2022-10-20T06:06:02.062Z,5.3
2022-10-20T06:07:02.096Z,5.3
2022-10-20T06:08:07.613Z,5.3
2022-10-20T06:09:01.108Z,5.3
2022-10-20T06:10:01.803Z,5.3
2022-10-20T06:11:01.781Z,5.3
2022-10-20T06:12:02.488Z,5.3
2022-10-20T06:13:10.926Z,5.3
2022-10-20T06:14:01.507Z,5.3
2022-10-20T06:15:01.250Z,5.3
2022-10-20T06:16:02.151Z,5.3
2022-10-20T06:17:01.072Z,5.3
2022-10-20T06:18:13.312Z,5.4
2022-10-20T06:19:01.815Z,5.3
2022-10-20T06:20:02.505Z,5.4
2022-10-20T06:21:01.487Z,5.4
2022-10-20T06:22:04.073Z,5.4
2022-10-20T06:23:16.739Z,5.4
2022-10-20T06:24:02.317Z,5.3
2022-10-20T06:25:01.924Z,5.4
2022-10-20T06:26:02.134Z,5.4
2022-10-20T06:27:01.121Z,5.4
2022-10-20T06:28:01.118Z,5.4
2022-10-20T06:29:04.696Z,5.4
2022-10-20T06:30:01.541Z,5.4
2022-10-20T06:31:02.279Z,5.4
2022-10-20T06:32:01.194Z,5.5
2022-10-20T06:33:01.158Z,5.5
2022-10-20T06:34:00.856Z,5.5
2022-10-20T06:35:00.435Z,5.5
2022-10-20T06:36:00.064Z,5.5
2022-10-20T06:36:59.732Z,5.6
2022-10-20T06:38:01.853Z,5.6
2022-10-20T06:39:02.029Z,5.6
2022-10-20T06:40:01.856Z,5.6
2022-10-20T06:41:01.470Z,5.6
2022-10-20T06:42:02.125Z,5.6
2022-10-20T06:43:02.134Z,5.6
2022-10-20T06:44:01.832Z,5.6
2022-10-20T06:45:01.177Z,5.6
2022-10-20T06:46:01.130Z,5.7
2022-10-20T06:47:01.147Z,5.8
2022-10-20T06:48:01.141Z,5.8
2022-10-20T06:49:01.172Z,5.8
2022-10-20T06:50:01.078Z,5.8
2022-10-20T06:51:01.078Z,5.8
2022-10-20T06:52:01.113Z,5.8
2022-10-20T06:53:01.079Z,5.9
2022-10-20T06:54:01.475Z,5.9
2022-10-20T06:55:01.375Z,6
2022-10-20T06:56:02.770Z,6
2022-10-20T06:57:02.150Z,6
2022-10-20T06:58:01.105Z,6
2022-10-20T06:59:01.137Z,6.1
2022-10-20T07:00:00.651Z,6.1
2022-10-20T07:01:02.602Z,6.1
2022-10-20T07:02:01.495Z,6.1
2022-10-20T07:03:01.403Z,6.1
2022-10-20T07:04:02.267Z,6.2
2022-10-20T07:05:01.169Z,6.3
2022-10-20T07:06:01.790Z,6.3
2022-10-20T07:07:01.080Z,6.3
2022-10-20T07:08:01.176Z,6.4
2022-10-20T07:09:01.179Z,6.5
2022-10-20T07:10:02.438Z,6.5
2022-10-20T07:11:02.118Z,6.5
2022-10-20T07:12:01.490Z,6.5
2022-10-20T07:13:01.221Z,6.6
2022-10-20T07:14:00.593Z,6.6
2022-10-20T07:15:00.180Z,6.6
2022-10-20T07:15:59.838Z,6.6
2022-10-20T07:17:01.542Z,6.6
2022-10-20T07:18:01.135Z,6.6
2022-10-20T07:19:01.158Z,6.6
2022-10-20T07:20:01.592Z,6.6
2022-10-20T07:21:02.108Z,6.6
2022-10-20T07:22:01.989Z,6.6
2022-10-20T07:23:01.185Z,6.7
2022-10-20T07:24:01.398Z,6.7
2022-10-20T07:25:01.089Z,6.8
2022-10-20T07:26:01.079Z,6.8
2022-10-20T07:27:01.113Z,6.8
2022-10-20T07:28:01.087Z,6.8
2022-10-20T07:29:01.340Z,6.8
2022-10-20T07:30:01.119Z,6.9
2022-10-20T07:31:01.876Z,6.9
2022-10-20T07:32:02.086Z,7
2022-10-20T07:33:02.551Z,7
2022-10-20T07:34:13.582Z,7
2022-10-20T07:35:01.324Z,7.1
2022-10-20T07:36:01.675Z,7.1
2022-10-20T07:37:01.856Z,7.1
2022-10-20T07:38:01.048Z,7.1
2022-10-20T07:39:01.194Z,7.2
2022-10-20T07:40:01.061Z,7.2
2022-10-20T07:41:01.775Z,7.2
2022-10-20T07:42:01.778Z,7.3
2022-10-20T07:43:01.120Z,7.3
2022-10-20T07:44:01.149Z,7.3
2022-10-20T07:45:01.815Z,7.3
2022-10-20T07:46:01.520Z,7.3
2022-10-20T07:47:00.716Z,7.4
2022-10-20T07:48:00.409Z,7.5
2022-10-20T07:49:23.907Z,7.5
2022-10-20T07:50:01.282Z,7.5
2022-10-20T07:51:01.591Z,7.6
2022-10-20T07:52:01.530Z,7.6
2022-10-20T07:53:01.203Z,7.6
2022-10-20T07:54:03.122Z,7.7
2022-10-20T07:55:17.381Z,7.7
2022-10-20T07:56:01.059Z,7.8
2022-10-20T07:57:01.778Z,7.8
2022-10-20T07:58:02.509Z,7.8
2022-10-20T07:59:06.573Z,7.8
2022-10-20T08:00:01.287Z,7.9
2022-10-20T08:01:04.097Z,7.9
2022-10-20T08:02:01.836Z,8
2022-10-20T08:03:01.151Z,8
2022-10-20T08:04:09.521Z,8
2022-10-20T08:05:01.133Z,8.1
2022-10-20T08:06:01.141Z,8.1
2022-10-20T08:07:01.285Z,8.2
2022-10-20T08:08:01.532Z,8.3
2022-10-20T08:09:12.701Z,8.3
2022-10-20T08:10:01.088Z,8.3
2022-10-20T08:11:01.356Z,8.3
2022-10-20T08:12:01.089Z,8.4
2022-10-20T08:13:01.090Z,8.4
2022-10-20T08:14:14.425Z,8.5
2022-10-20T08:15:01.132Z,8.5
2022-10-20T08:16:01.511Z,8.5
2022-10-20T08:17:01.372Z,8.5
2022-10-20T08:18:01.102Z,8.6
2022-10-20T08:19:01.698Z,8.6
2022-10-20T08:20:02.224Z,8.6
2022-10-20T08:21:01.329Z,8.6
2022-10-20T08:22:02.573Z,8.7
2022-10-20T08:23:01.312Z,8.8
2022-10-20T08:24:01.398Z,8.8
2022-10-20T08:25:01.534Z,8.8
2022-10-20T08:26:01.154Z,8.9
2022-10-20T08:27:01.053Z,9
2022-10-20T08:28:01.071Z,9
2022-10-20T08:29:01.088Z,9
2022-10-20T08:30:22.359Z,9.1
2022-10-20T08:31:01.511Z,9.1
2022-10-20T08:32:01.263Z,9.1
2022-10-20T08:33:01.107Z,9.2
2022-10-20T08:34:01.435Z,9.2
2022-10-20T08:35:01.121Z,9.2
2022-10-20T08:36:01.128Z,9.3
2022-10-20T08:37:01.124Z,9.3
2022-10-20T08:38:00.560Z,9.3
2022-10-20T08:39:03.564Z,9.4
2022-10-20T08:40:01.755Z,9.4
2022-10-20T08:41:01.162Z,9.4
2022-10-20T08:42:09.561Z,9.4
2022-10-20T08:43:01.057Z,9.4
2022-10-20T08:44:01.147Z,9.5
2022-10-20T08:45:01.075Z,9.5
2022-10-20T08:46:01.269Z,9.5
2022-10-20T08:47:01.081Z,9.5
2022-10-20T08:48:01.158Z,9.5
2022-10-20T08:49:01.102Z,9.6
2022-10-20T08:50:01.483Z,9.6
2022-10-20T08:51:01.543Z,9.6
2022-10-20T08:52:01.188Z,9.6
2022-10-20T08:53:01.078Z,9.7
2022-10-20T08:54:00.830Z,9.7
2022-10-20T08:55:00.392Z,9.7
2022-10-20T08:56:00.006Z,9.8
2022-10-20T08:56:59.601Z,9.8
2022-10-20T08:58:01.406Z,9.8
2022-10-20T08:59:01.200Z,9.8
2022-10-20T09:00:03.912Z,9.9
2022-10-20T09:01:04.144Z,9.9
2022-10-20T09:02:01.214Z,10
2022-10-20T09:03:01.230Z,10
2022-10-20T09:04:02.316Z,10
2022-10-20T09:05:00.843Z,10.1
2022-10-20T09:06:00.481Z,10.1
2022-10-20T09:07:00.021Z,10.1
2022-10-20T09:07:59.567Z,10.1
2022-10-20T09:09:01.246Z,10.2
2022-10-20T09:10:01.300Z,10.2
2022-10-20T09:11:01.129Z,10.2
2022-10-20T09:12:01.269Z,10.3
2022-10-20T09:13:01.655Z,10.3
2022-10-20T09:14:01.301Z,10.3
2022-10-20T09:15:02.553Z,10.3
2022-10-20T09:16:01.078Z,10.4
2022-10-20T09:17:01.233Z,10.5
2022-10-20T09:18:01.240Z,10.5
2022-10-20T09:19:01.088Z,10.5
2022-10-20T09:20:01.101Z,10.5
2022-10-20T09:21:01.093Z,10.5
2022-10-20T09:22:02.114Z,10.6
2022-10-20T09:23:04.197Z,10.6
2022-10-20T09:24:01.320Z,10.6
2022-10-20T09:25:01.160Z,10.6
2022-10-20T09:26:01.219Z,10.7
2022-10-20T09:27:01.139Z,10.8
2022-10-20T09:28:01.140Z,10.8
2022-10-20T09:29:12.452Z,10.8
2022-10-20T09:30:01.279Z,10.8
2022-10-20T09:31:02.971Z,10.9
2022-10-20T09:32:16.643Z,10.9
2022-10-20T09:33:01.603Z,11
2022-10-20T09:34:01.233Z,11
2022-10-20T09:35:05.258Z,11
2022-10-20T09:36:02.204Z,11
2022-10-20T09:37:01.432Z,11
2022-10-20T09:38:02.636Z,11
2022-10-20T09:39:01.143Z,11.1
2022-10-20T09:40:07.928Z,11.1
2022-10-20T09:41:02.621Z,11.1
2022-10-20T09:43:02.041Z,11.2
2022-10-20T09:44:02.766Z,11.2
2022-10-20T09:45:11.091Z,11.3
2022-10-20T09:46:01.586Z,11.3
2022-10-20T09:47:01.324Z,11.3
2022-10-20T09:48:02.213Z,11.3
2022-10-20T09:49:02.223Z,11.4
2022-10-20T09:50:14.035Z,11.4
2022-10-20T09:51:01.942Z,11.4
2022-10-20T09:52:01.083Z,11.5
2022-10-20T09:53:00.926Z,11.5
2022-10-20T09:54:01.069Z,11.5
2022-10-20T09:55:15.920Z,11.5
2022-10-20T09:56:01.116Z,11.5
2022-10-20T09:57:01.151Z,11.5
2022-10-20T09:58:01.124Z,11.5
2022-10-20T09:59:01.191Z,11.5
2022-10-20T10:00:04.505Z,11.5
2022-10-20T10:01:01.153Z,11.5
2022-10-20T10:02:01.489Z,11.6
2022-10-20T10:03:01.185Z,11.6
2022-10-20T10:04:01.149Z,11.6
2022-10-20T10:05:01.158Z,11.6
2022-10-20T10:06:01.143Z,11.6
2022-10-20T10:07:01.185Z,11.7
2022-10-20T10:08:01.270Z,11.7
2022-10-20T10:09:01.174Z,11.7
2022-10-20T10:10:03.950Z,11.7
2022-10-20T10:11:01.085Z,11.8
2022-10-20T10:12:01.449Z,11.8
2022-10-20T10:13:01.581Z,11.8
2022-10-20T10:14:01.539Z,11.8
2022-10-20T10:15:01.250Z,11.8
2022-10-20T10:16:01.954Z,11.8
2022-10-20T10:17:01.189Z,11.9
2022-10-20T10:18:01.152Z,11.9
2022-10-20T10:19:02.009Z,12
2022-10-20T10:20:01.060Z,12
2022-10-20T10:21:01.460Z,12
2022-10-20T10:22:01.350Z,12
2022-10-20T10:23:02.044Z,12
2022-10-20T10:24:02.113Z,12
2022-10-20T10:25:01.242Z,12.1
2022-10-20T10:26:02.279Z,12.1
2022-10-20T10:27:01.158Z,12.1
2022-10-20T10:28:01.412Z,12.1
2022-10-20T10:29:01.264Z,12.1
2022-10-20T10:30:01.136Z,12.1
2022-10-20T10:31:02.045Z,12.1
2022-10-20T10:32:01.145Z,12.1
2022-10-20T10:33:01.144Z,12.1
2022-10-20T10:34:00.753Z,12.1
2022-10-20T10:35:00.350Z,12.2
2022-10-20T10:35:59.929Z,12.2
2022-10-20T10:37:02.371Z,12.2
2022-10-20T10:38:01.764Z,12.3
2022-10-20T10:39:02.315Z,12.3
2022-10-20T10:40:01.909Z,12.3
2022-10-20T10:41:01.143Z,12.3
2022-10-20T10:42:01.105Z,12.3
2022-10-20T10:43:01.102Z,12.3
2022-10-20T10:44:01.120Z,12.4
2022-10-20T10:45:01.113Z,12.4
2022-10-20T10:46:01.503Z,12.4
2022-10-20T10:47:01.245Z,12.5
2022-10-20T10:48:01.075Z,12.5
2022-10-20T10:49:01.138Z,12.5
2022-10-20T10:50:01.147Z,12.5
2022-10-20T10:51:01.051Z,12.5
2022-10-20T10:52:01.452Z,12.5
2022-10-20T10:53:01.094Z,12.5
2022-10-20T10:54:00.763Z,12.6
2022-10-20T10:55:00.350Z,12.6
2022-10-20T10:56:00.205Z,12.6
2022-10-20T10:56:59.830Z,12.6
2022-10-20T10:58:01.566Z,12.7
2022-10-20T10:59:01.161Z,12.7
2022-10-20T11:00:01.136Z,12.7
2022-10-20T11:01:01.980Z,12.7
2022-10-20T11:02:01.191Z,12.8
2022-10-20T11:03:01.153Z,12.8
2022-10-20T11:04:01.133Z,12.8
2022-10-20T11:05:01.149Z,12.8
2022-10-20T11:06:01.153Z,12.8
2022-10-20T11:07:01.160Z,12.8
2022-10-20T11:08:01.061Z,12.8
2022-10-20T11:09:01.436Z,12.8
2022-10-20T11:10:01.356Z,12.8
2022-10-20T11:11:01.875Z,12.8
2022-10-20T11:12:01.114Z,12.8
2022-10-20T11:13:01.531Z,12.8
2022-10-20T11:14:01.101Z,12.9
2022-10-20T11:15:01.286Z,12.9
2022-10-20T11:16:11.601Z,12.9
2022-10-20T11:17:01.278Z,12.9
2022-10-20T11:18:01.463Z,12.9
2022-10-20T11:19:01.518Z,12.9
2022-10-20T11:20:02.142Z,12.9
2022-10-20T11:21:07.655Z,12.9
2022-10-20T11:22:01.429Z,12.9
2022-10-20T11:23:04.119Z,12.9
2022-10-20T11:24:02.074Z,13
2022-10-20T11:25:01.159Z,13
2022-10-20T11:26:09.924Z,13
2022-10-20T11:27:01.134Z,13
2022-10-20T11:28:01.037Z,13
2022-10-20T11:29:01.090Z,13
2022-10-20T11:30:01.548Z,13.1
2022-10-20T11:31:12.626Z,13.1
2022-10-20T11:32:02.011Z,13
2022-10-20T11:33:01.160Z,13.1
2022-10-20T11:34:00.774Z,13.1
2022-10-20T11:35:00.394Z,13.1
2022-10-20T11:36:13.452Z,13.2
2022-10-20T11:37:01.157Z,13.2
2022-10-20T11:38:01.064Z,13.2
2022-10-20T11:39:01.193Z,13.2
2022-10-20T11:40:04.581Z,13.2
2022-10-20T11:41:15.453Z,13.2
2022-10-20T11:42:01.472Z,13.2
2022-10-20T11:43:02.087Z,13.2
2022-10-20T11:44:01.091Z,13.2
2022-10-20T11:45:01.096Z,13.2
2022-10-20T11:46:01.085Z,13.3
2022-10-20T11:47:01.094Z,13.3
2022-10-20T11:48:01.037Z,13.3
2022-10-20T11:49:03.343Z,13.3
2022-10-20T11:50:01.823Z,13.4
2022-10-20T11:51:01.186Z,13.4
2022-10-20T11:52:01.520Z,13.4
2022-10-20T11:53:01.144Z,13.5
2022-10-20T11:54:01.155Z,13.5
2022-10-20T11:55:01.246Z,13.5
2022-10-20T11:56:01.146Z,13.5
2022-10-20T11:57:01.074Z,13.5
2022-10-20T11:58:01.319Z,13.5
2022-10-20T11:59:03.373Z,13.5
2022-10-20T12:00:01.108Z,13.5
2022-10-20T12:01:01.094Z,13.5
2022-10-20T12:02:01.498Z,13.5
2022-10-20T12:03:01.216Z,13.5
2022-10-20T12:04:01.126Z,13.5
2022-10-20T12:05:01.817Z,13.5
2022-10-20T12:06:01.057Z,13.5
2022-10-20T12:07:00.716Z,13.5
2022-10-20T12:08:24.760Z,13.6
2022-10-20T12:09:01.373Z,13.6
2022-10-20T12:10:01.343Z,13.6
2022-10-20T12:11:01.369Z,13.6
2022-10-20T12:12:01.047Z,13.6
2022-10-20T12:13:01.124Z,13.6
2022-10-20T12:14:01.082Z,13.6
2022-10-20T12:15:01.276Z,13.6
2022-10-20T12:16:01.081Z,13.6
2022-10-20T12:17:01.288Z,13.6
2022-10-20T12:18:01.479Z,13.6
2022-10-20T12:19:02.333Z,13.6
2022-10-20T12:20:01.119Z,13.7
2022-10-20T12:21:01.112Z,13.7
2022-10-20T12:22:00.810Z,13.7
2022-10-20T12:23:00.583Z,13.7
2022-10-20T12:24:00.354Z,13.8
2022-10-20T12:25:00.013Z,13.8
2022-10-20T12:25:59.746Z,13.8
2022-10-20T12:27:02.465Z,13.7
2022-10-20T12:28:01.924Z,13.8
2022-10-20T12:29:01.087Z,13.8
2022-10-20T12:30:01.470Z,13.8
2022-10-20T12:31:01.456Z,13.8
2022-10-20T12:32:01.082Z,13.7
2022-10-20T12:33:01.117Z,13.7
2022-10-20T12:34:01.135Z,13.7
2022-10-20T12:35:01.321Z,13.7
2022-10-20T12:36:01.097Z,13.7
2022-10-20T12:38:01.498Z,13.6
2022-10-20T12:39:01.513Z,13.7
2022-10-20T12:40:01.402Z,13.7
2022-10-20T12:41:02.318Z,13.7
2022-10-20T12:42:01.139Z,13.7
2022-10-20T12:43:01.194Z,13.7
2022-10-20T12:44:01.093Z,13.7
2022-10-20T12:45:02.494Z,13.8
2022-10-20T12:46:01.740Z,13.8
2022-10-20T12:47:02.105Z,13.8
2022-10-20T12:48:02.280Z,13.8
2022-10-20T12:49:01.098Z,13.8
2022-10-20T12:50:01.082Z,13.8
2022-10-20T12:51:01.103Z,13.8
2022-10-20T12:52:01.114Z,13.8
2022-10-20T12:53:01.105Z,13.8
2022-10-20T12:54:01.122Z,13.8
2022-10-20T12:55:00.815Z,13.8
2022-10-20T12:56:00.399Z,13.8
2022-10-20T12:57:02.030Z,13.8
2022-10-20T12:58:03.123Z,13.8
2022-10-20T12:59:01.051Z,13.8
2022-10-20T13:00:01.231Z,13.8
2022-10-20T13:01:01.128Z,13.8
2022-10-20T13:02:04.566Z,13.8
2022-10-20T13:03:01.165Z,13.9
2022-10-20T13:04:01.095Z,13.9
2022-10-20T13:05:01.499Z,14
2022-10-20T13:06:01.487Z,14
2022-10-20T13:07:07.754Z,14
2022-10-20T13:08:02.480Z,14
2022-10-20T13:09:01.589Z,14
2022-10-20T13:10:03.544Z,14
2022-10-20T13:11:01.548Z,14
2022-10-20T13:12:10.276Z,14
2022-10-20T13:13:01.779Z,14
2022-10-20T13:14:03.931Z,14
2022-10-20T13:15:01.789Z,14
2022-10-20T13:16:02.232Z,14
2022-10-20T13:17:13.499Z,14
2022-10-20T13:18:01.072Z,14
2022-10-20T13:19:01.082Z,14
2022-10-20T13:20:01.598Z,14
2022-10-20T13:21:01.081Z,14
2022-10-20T13:22:16.250Z,14
2022-10-20T13:23:01.167Z,14
2022-10-20T13:24:01.226Z,14
2022-10-20T13:25:01.815Z,14
2022-10-20T13:26:03.023Z,14
2022-10-20T13:27:01.160Z,14
2022-10-20T13:28:01.547Z,14
2022-10-20T13:29:01.166Z,14
2022-10-20T13:30:01.203Z,14
2022-10-20T13:31:01.148Z,14
2022-10-20T13:32:03.684Z,14
2022-10-20T13:33:18.134Z,13.9
2022-10-20T13:34:05.791Z,14
2022-10-20T13:35:01.427Z,14
2022-10-20T13:36:01.106Z,14
2022-10-20T13:37:01.084Z,13.9
2022-10-20T13:38:01.104Z,13.9
2022-10-20T13:39:01.498Z,13.9
2022-10-20T13:40:01.118Z,13.9
2022-10-20T13:42:01.218Z,13.9
2022-10-20T13:43:01.369Z,13.9
2022-10-20T13:44:04.236Z,13.9
2022-10-20T13:45:02.082Z,13.9
2022-10-20T13:46:01.183Z,13.9
2022-10-20T13:47:01.146Z,13.8
2022-10-20T13:48:01.545Z,13.8